Time;durP1;ratioP1;P1;durP2;ratioP2;P2;SDS_P1;SDS_P2;PMS_P1;PMS_P2;Temp;Humidity;BMP_temperature;BMP_pressure;BME280_temperature;BME280_humidity;BME280_pressure;Samples;Min_cycle;Max_cycle;Signal;HPM_P1;HPM_P2
2021/05/26 00:00:55;;;;;;;8.40;3.60;;;;;;;11.40;94.06;100419.38;5014247;28;20033;-88
2021/05/26 00:03:21;;;;;;;5.22;3.65;;;;;;;11.29;94.56;100422.75;5014283;28;20056;-88
2021/05/26 00:05:48;;;;;;;3.83;3.13;;;;;;;11.22;95.85;100424.16;5014216;28;20054;-88
2021/05/26 00:08:14;;;;;;;3.90;2.83;;;;;;;11.22;96.06;100429.41;5014216;28;20034;-88
2021/05/26 00:10:39;;;;;;;8.45;3.65;;;;;;;11.22;95.82;100427.63;5022824;28;20434;-87
2021/05/26 00:13:05;;;;;;;6.95;3.03;;;;;;;11.21;94.75;100432.97;5020853;28;20033;-88
2021/05/26 00:15:30;;;;;;;7.32;3.25;;;;;;;10.83;98.08;100425.97;5014056;28;20080;-88
2021/05/26 00:17:56;;;;;;;7.45;2.95;;;;;;;10.81;97.17;100425.25;5014616;28;20105;-87
2021/05/26 00:20:21;;;;;;;6.55;2.47;;;;;;;10.82;98.54;100435.66;5012661;28;20033;-88
2021/05/26 00:22:47;;;;;;;6.97;2.80;;;;;;;10.82;97.75;100433.03;5013945;28;20025;-87
2021/05/26 00:25:13;;;;;;;7.85;2.80;;;;;;;10.83;97.00;100425.97;5016857;28;20025;-88
2021/05/26 00:27:39;;;;;;;6.38;2.92;;;;;;;10.80;97.55;100423.53;5033640;28;20037;-87
2021/05/26 00:30:05;;;;;;;5.32;2.63;;;;;;;10.72;97.40;100418.81;5033592;28;20018;-87
2021/05/26 00:32:30;;;;;;;6.80;3.30;;;;;;;10.67;96.07;100418.31;5033332;28;20029;-88
2021/05/26 00:34:56;;;;;;;11.68;5.00;;;;;;;10.51;94.83;100427.22;5018729;28;20022;-87
2021/05/26 00:37:21;;;;;;;10.38;5.53;;;;;;;10.38;96.90;100420.25;5013554;28;20069;-87
2021/05/26 00:39:47;;;;;;;8.55;5.80;;;;;;;10.35;97.83;100429.19;5013546;28;20022;-88
2021/05/26 00:42:19;;;;;;;11.85;6.13;;;;;;;10.43;96.89;100441.81;5013602;28;20026;-87
2021/05/26 00:44:45;;;;;;;10.85;5.65;;;;;;;10.34;97.20;100439.78;5013366;28;20029;-88
2021/05/26 00:47:10;;;;;;;10.18;5.93;;;;;;;10.36;96.98;100441.34;5013171;28;20492;-88
2021/05/26 00:49:35;;;;;;;12.15;6.07;;;;;;;10.26;97.08;100445.50;5026150;28;20033;-88
2021/05/26 00:52:01;;;;;;;5.63;3.63;;;;;;;10.23;98.06;100446.56;5033291;28;20498;-88
2021/05/26 00:54:26;;;;;;;12.20;4.15;;;;;;;10.29;99.16;100440.91;5033225;28;20402;-88
2021/05/26 00:56:51;;;;;;;6.65;3.83;;;;;;;10.30;98.71;100439.97;5033089;28;20029;-87
2021/05/26 00:59:17;;;;;;;7.20;4.38;;;;;;;10.28;96.80;100444.44;5032892;28;20098;-88
2021/05/26 01:01:42;;;;;;;7.75;4.50;;;;;;;10.25;96.86;100446.47;5032939;28;20029;-88
2021/05/26 01:04:07;;;;;;;9.02;5.05;;;;;;;10.28;97.30;100444.44;5029607;28;20049;-87
2021/05/26 01:06:33;;;;;;;12.73;5.78;;;;;;;10.28;98.91;100439.22;5032859;28;20029;-88
2021/05/26 01:08:58;;;;;;;9.57;5.25;;;;;;;10.22;97.73;100447.50;5032852;28;20116;-88
2021/05/26 01:11:24;;;;;;;9.93;5.28;;;;;;;10.34;98.31;100452.91;5031562;28;20025;-87
2021/05/26 01:13:49;;;;;;;7.15;4.57;;;;;;;10.21;98.56;100451.06;5012970;28;20033;-88
2021/05/26 01:16:15;;;;;;;8.05;4.75;;;;;;;10.22;97.53;100452.72;5012655;28;20471;-88
2021/05/26 01:18:40;;;;;;;6.93;4.75;;;;;;;10.16;98.14;100452.31;5013013;28;20460;-88
2021/05/26 01:21:08;;;;;;;10.30;5.22;;;;;;;10.10;98.60;100445.69;5012842;28;20072;-88
2021/05/26 01:23:34;;;;;;;5.78;4.07;;;;;;;10.15;98.41;100455.84;5013128;28;20029;-88
2021/05/26 01:26:01;;;;;;;12.30;5.43;;;;;;;10.15;98.82;100448.84;5012847;28;20030;-88
2021/05/26 01:28:29;;;;;;;11.20;5.63;;;;;;;10.21;98.73;100453.69;5028135;28;20504;-88
2021/05/26 01:30:55;;;;;;;11.02;4.88;;;;;;;10.23;98.15;100451.81;5012482;28;20357;-88
2021/05/26 01:33:20;;;;;;;10.02;4.88;;;;;;;10.24;98.11;100457.88;5012936;28;20018;-87
2021/05/26 01:35:48;;;;;;;7.57;4.93;;;;;;;10.19;96.82;100460.81;5012665;28;20558;-87
2021/05/26 01:38:16;;;;;;;6.55;5.22;;;;;;;10.15;97.85;100448.84;5012768;28;20108;-87
2021/05/26 01:40:41;;;;;;;8.00;5.05;;;;;;;10.13;97.96;100464.69;5012591;28;20471;-88
2021/05/26 01:43:07;;;;;;;9.40;5.43;;;;;;;10.06;98.11;100452.91;5014283;28;20026;-87
2021/05/26 01:45:32;;;;;;;9.55;4.57;;;;;;;10.05;98.03;100450.38;5032208;28;20021;-88
2021/05/26 01:47:58;;;;;;;9.75;4.70;;;;;;;10.06;97.72;100452.91;5024899;28;20119;-88
2021/05/26 01:50:24;;;;;;;5.72;4.38;;;;;;;10.08;97.56;100463.31;5011425;28;20480;-88
2021/05/26 01:52:59;;;;;;;9.45;5.13;;;;;;;10.05;97.05;100468.72;5012513;28;20030;-87
2021/05/26 01:55:25;;;;;;;9.50;4.60;;;;;;;10.01;97.32;100459.38;5012538;28;20119;-87
2021/05/26 01:57:50;;;;;;;8.00;3.85;;;;;;;10.04;96.56;100461.81;5012092;28;20484;-88
2021/05/26 02:00:18;;;;;;;6.68;3.85;;;;;;;9.95;96.51;100457.16;5011803;28;20501;-88
2021/05/26 02:02:44;;;;;;;7.65;3.88;;;;;;;9.88;98.38;100460.19;5011141;28;20383;-88
2021/05/26 02:05:10;;;;;;;6.20;3.53;;;;;;;9.90;96.70;100463.53;5013120;28;20057;-87
2021/05/26 02:07:36;;;;;;;10.23;3.90;;;;;;;9.93;97.93;100463.34;5012302;28;20040;-87
2021/05/26 02:10:05;;;;;;;7.35;4.13;;;;;;;9.99;98.06;100461.25;5012120;28;20384;-88
2021/05/26 02:12:33;;;;;;;6.68;3.55;;;;;;;10.00;97.53;100460.34;5012284;28;20538;-88
2021/05/26 02:15:01;;;;;;;9.73;3.33;;;;;;;9.89;97.95;100467.13;5012206;28;20432;-87
2021/05/26 02:17:26;;;;;;;6.18;3.13;;;;;;;9.96;97.76;100459.69;5014217;28;20113;-87
2021/05/26 02:19:52;;;;;;;7.82;3.22;;;;;;;10.04;96.41;100464.44;5031653;28;20344;-87
2021/05/26 02:22:18;;;;;;;7.10;3.10;;;;;;;9.83;97.44;100459.63;5015247;28;20409;-87
2021/05/26 02:24:45;;;;;;;5.05;3.15;;;;;;;9.90;97.17;100462.72;5012143;28;20026;-88
2021/05/26 02:27:10;;;;;;;8.35;3.40;;;;;;;9.82;96.71;100463.19;5011893;28;20014;-88
2021/05/26 02:29:36;;;;;;;5.93;3.47;;;;;;;9.73;98.30;100461.16;5011949;28;20076;-88
2021/05/26 02:32:03;;;;;;;7.88;3.20;;;;;;;9.74;97.93;100454.97;5012097;28;20088;-88
2021/05/26 02:34:28;;;;;;;4.43;3.13;;;;;;;9.67;97.69;100458.91;5011956;28;20464;-88
2021/05/26 02:36:54;;;;;;;7.22;3.38;;;;;;;9.59;99.24;100469.88;5026076;28;20033;-87
2021/05/26 02:39:19;;;;;;;7.03;2.75;;;;;;;9.50;98.68;100467.88;5012769;28;20029;-88
2021/05/26 02:41:45;;;;;;;5.25;3.92;;;;;;;9.50;100.00;100462.63;5011839;28;20022;-88
2021/05/26 02:44:11;;;;;;;7.05;3.65;;;;;;;9.61;99.24;100454.06;5011864;28;20445;-88
2021/05/26 02:46:36;;;;;;;6.72;4.32;;;;;;;9.53;100.00;100463.25;5010599;28;20473;-88
2021/05/26 02:49:04;;;;;;;6.40;4.32;;;;;;;9.59;99.97;100463.81;5011816;28;20105;-88
2021/05/26 02:51:31;;;;;;;7.43;3.92;;;;;;;9.47;99.30;100450.53;5011830;28;20026;-88
2021/05/26 02:53:57;;;;;;;5.75;4.28;;;;;;;9.52;98.82;100463.38;5011315;28;20030;-87
2021/05/26 02:56:22;;;;;;;9.95;4.15;;;;;;;9.63;99.42;100453.03;5011668;28;20030;-88
2021/05/26 02:58:48;;;;;;;8.77;4.03;;;;;;;9.78;98.45;100461.72;5011806;28;20026;-88
2021/05/26 03:01:13;;;;;;;9.27;5.13;;;;;;;9.88;97.69;100457.56;5011552;28;20037;-88
2021/05/26 03:03:38;;;;;;;6.00;3.95;;;;;;;9.85;95.72;100457.78;5011769;28;20041;-88
2021/05/26 03:06:04;;;;;;;10.88;3.83;;;;;;;9.86;96.41;100456.81;5011704;28;20026;-88
2021/05/26 03:08:29;;;;;;;7.15;4.32;;;;;;;9.85;96.58;100452.53;5026908;28;20042;-88
2021/05/26 03:10:57;;;;;;;5.40;3.35;;;;;;;9.79;96.67;100455.50;5027917;28;20018;-88
2021/05/26 03:13:23;;;;;;;7.43;3.53;;;;;;;9.85;96.97;100462.16;5015472;28;20365;-87
2021/05/26 03:15:49;;;;;;;7.40;3.83;;;;;;;9.91;95.44;100462.63;5015284;28;20033;-88
2021/05/26 03:18:15;;;;;;;6.72;3.40;;;;;;;9.75;95.29;100461.06;5015172;28;20018;-88
2021/05/26 03:20:40;;;;;;;8.30;3.40;;;;;;;9.83;95.75;100464.88;5016198;28;20023;-88
2021/05/26 03:23:06;;;;;;;6.20;3.22;;;;;;;9.84;94.88;100468.34;5014373;28;20486;-87
2021/05/26 03:25:31;;;;;;;6.63;3.47;;;;;;;9.81;96.85;100451.00;5019339;28;20476;-88
2021/05/26 03:27:57;;;;;;;5.28;3.38;;;;;;;9.60;96.53;100457.66;5035338;28;20025;-88
2021/05/26 03:30:22;;;;;;;5.75;3.83;;;;;;;9.58;98.97;100455.13;5037159;28;20411;-88
2021/05/26 03:32:47;;;;;;;11.02;3.65;;;;;;;9.62;98.57;100461.84;5036345;28;20031;-87
2021/05/26 03:35:15;;;;;;;7.53;3.08;;;;;;;9.81;97.58;100458.88;5036357;28;20022;-87
2021/05/26 03:37:41;;;;;;;4.45;3.35;;;;;;;9.64;97.38;100469.63;5027042;28;20235;-88
2021/05/26 03:40:10;;;;;;;7.40;3.40;;;;;;;9.61;98.09;100470.63;5016452;28;20204;-88
2021/05/26 03:42:35;;;;;;;6.90;3.72;;;;;;;9.59;99.21;100466.44;5015259;28;20033;-87
2021/05/26 03:45:01;;;;;;;6.25;3.20;;;;;;;9.59;98.45;100458.56;5015096;28;20018;-87
2021/05/26 03:47:26;;;;;;;8.63;3.95;;;;;;;9.51;98.40;100457.25;5015387;28;20097;-88
2021/05/26 03:49:52;;;;;;;10.90;3.45;;;;;;;9.47;99.70;100458.38;5016351;28;20514;-88
2021/05/26 03:52:17;;;;;;;9.43;3.60;;;;;;;9.52;97.54;100461.56;5024025;28;20021;-87
2021/05/26 03:54:42;;;;;;;4.93;3.33;;;;;;;9.38;98.60;100458.13;5034610;28;20022;-88
2021/05/26 03:57:09;;;;;;;6.47;3.50;;;;;;;9.40;99.27;100464.09;5035855;28;20034;-87
2021/05/26 03:59:34;;;;;;;4.82;3.08;;;;;;;9.37;98.44;100462.53;5035527;28;20475;-88
2021/05/26 04:02:00;;;;;;;4.55;3.05;;;;;;;9.35;100.00;100456.53;5035388;28;20026;-88
2021/05/26 04:04:25;;;;;;;7.05;3.17;;;;;;;9.36;100.00;100455.63;5033629;28;20047;-88
2021/05/26 04:06:51;;;;;;;7.85;3.03;;;;;;;9.42;100.00;100449.13;5028593;28;20026;-88
2021/05/26 04:09:17;;;;;;;4.97;3.17;;;;;;;9.46;99.99;100456.72;5022968;28;20056;-88
2021/05/26 04:11:43;;;;;;;9.23;3.42;;;;;;;9.36;100.00;100463.47;5033880;28;20467;-88
2021/05/26 04:14:08;;;;;;;7.03;3.40;;;;;;;9.51;98.48;100457.25;5033883;28;20087;-88
2021/05/26 04:16:33;;;;;;;9.43;3.50;;;;;;;9.41;99.39;100455.31;5033718;28;20471;-89
2021/05/26 04:18:59;;;;;;;7.47;3.25;;;;;;;9.45;99.83;100457.66;5033785;28;20386;-88
2021/05/26 04:21:24;;;;;;;7.22;3.20;;;;;;;9.48;99.10;100459.25;5033113;28;20030;-88
2021/05/26 04:23:50;;;;;;;6.13;3.03;;;;;;;9.48;99.13;100460.09;5025988;28;20065;-88
2021/05/26 04:26:15;;;;;;;4.78;2.80;;;;;;;9.43;97.43;100462.16;5013813;28;20026;-88
2021/05/26 04:28:43;;;;;;;4.85;2.78;;;;;;;9.35;98.70;100458.31;5013870;28;20100;-88
2021/05/26 04:31:13;;;;;;;9.75;3.63;;;;;;;9.38;98.37;100461.59;5013678;28;20034;-88
2021/05/26 04:33:39;;;;;;;8.63;3.17;;;;;;;9.33;97.67;100466.28;5013874;28;20025;-88
2021/05/26 04:36:05;;;;;;;5.60;2.72;;;;;;;9.27;97.89;100458.78;5013657;28;20022;-88
2021/05/26 04:38:31;;;;;;;3.85;2.80;;;;;;;9.21;97.83;100467.03;5031812;28;20107;-88
2021/05/26 04:40:56;;;;;;;6.03;2.78;;;;;;;9.08;97.74;100473.03;5033557;28;20063;-88
2021/05/26 04:43:22;;;;;;;6.55;2.83;;;;;;;9.02;98.51;100477.78;5033411;28;20525;-88
2021/05/26 04:45:47;;;;;;;4.45;2.83;;;;;;;8.96;97.88;100472.91;5033512;28;20068;-88
2021/05/26 04:48:13;;;;;;;4.60;2.70;;;;;;;8.90;97.86;100464.47;5033354;28;20018;-88
2021/05/26 04:50:38;;;;;;;4.10;2.75;;;;;;;8.89;98.18;100467.22;5033169;28;20025;-88
2021/05/26 04:53:04;;;;;;;8.55;2.75;;;;;;;8.84;98.86;100466.63;5015913;28;20057;-88
2021/05/26 04:55:29;;;;;;;6.15;3.25;;;;;;;8.85;99.73;100474.41;5013210;28;20072;-88
2021/05/26 04:58:01;;;;;;;5.78;2.80;;;;;;;8.85;97.92;100470.94;5013404;28;20021;-88
2021/05/26 05:00:27;;;;;;;5.30;2.72;;;;;;;8.82;100.00;100466.72;5013158;28;20045;-88
2021/05/26 05:02:53;;;;;;;3.42;2.30;;;;;;;8.83;99.65;100463.19;5013340;28;20104;-88
2021/05/26 05:05:20;;;;;;;4.28;2.60;;;;;;;8.83;99.69;100457.94;5013238;28;20067;-88
2021/05/26 05:07:45;;;;;;;5.65;2.83;;;;;;;8.93;98.20;100455.63;5016033;28;20038;-89
2021/05/26 05:10:11;;;;;;;9.93;3.17;;;;;;;9.07;98.02;100462.63;5012922;28;20029;-88
2021/05/26 05:12:36;;;;;;;7.07;3.63;;;;;;;9.12;98.36;100464.06;5013042;28;20064;-88
2021/05/26 05:15:02;;;;;;;5.97;2.78;;;;;;;9.19;97.82;100469.75;5020253;28;20108;-88
2021/05/26 05:17:28;;;;;;;6.55;3.03;;;;;;;9.20;97.68;100463.59;5032613;28;20041;-88
2021/05/26 05:19:53;;;;;;;5.82;3.60;;;;;;;9.31;99.05;100465.53;5032621;28;20026;-88
2021/05/26 05:22:18;;;;;;;4.22;3.17;;;;;;;9.33;97.82;100469.72;5034946;28;20026;-87
2021/05/26 05:24:44;;;;;;;5.85;3.15;;;;;;;9.37;98.04;100480.88;5031226;28;20033;-87
2021/05/26 05:27:09;;;;;;;6.68;3.17;;;;;;;9.40;98.14;100478.06;5021042;28;20033;-87
2021/05/26 05:29:34;;;;;;;4.68;3.53;;;;;;;9.38;98.10;100490.44;5002715;28;20057;-93
2021/05/26 05:32:00;;;;;;;9.52;4.10;;;;;;;9.44;98.75;100484.81;4997423;28;20029;-93
2021/05/26 05:34:25;;;;;;;5.20;3.20;;;;;;;9.46;98.65;100493.41;5001771;28;20469;-91
2021/05/26 05:36:50;;;;;;;5.15;3.00;;;;;;;9.49;99.70;100493.22;4996207;28;20118;-89
2021/05/26 05:39:17;;;;;;;4.35;3.05;;;;;;;9.55;99.27;100499.03;5008827;28;20033;-90
2021/05/26 05:41:45;;;;;;;4.70;3.40;;;;;;;9.64;99.42;100495.84;5010283;28;20484;-88
2021/05/26 05:44:10;;;;;;;4.32;3.42;;;;;;;9.73;99.54;100501.34;4994900;28;20031;-87
2021/05/26 05:46:35;;;;;;;5.30;3.00;;;;;;;9.78;99.78;100503.66;5007134;28;20040;-87
2021/05/26 05:49:01;;;;;;;8.32;3.55;;;;;;;9.83;100.00;100501.56;5009206;28;20084;-87
2021/05/26 05:51:26;;;;;;;7.65;3.65;;;;;;;9.91;100.00;100504.59;5007132;28;20395;-86
2021/05/26 05:53:52;;;;;;;9.50;3.38;;;;;;;9.96;100.00;100508.69;5007198;28;20455;-86
2021/05/26 05:56:17;;;;;;;4.07;2.88;;;;;;;9.99;100.00;100501.47;5002647;28;20114;-86
2021/05/26 05:58:42;;;;;;;6.70;3.45;;;;;;;10.13;99.21;100497.97;5003556;28;20021;-87
2021/05/26 06:01:08;;;;;;;6.85;3.05;;;;;;;10.24;99.95;100505.97;5001564;28;20468;-87
2021/05/26 06:03:33;;;;;;;7.60;3.30;;;;;;;10.34;99.00;100505.41;4992619;28;20392;-87
2021/05/26 06:05:59;;;;;;;5.78;3.50;;;;;;;10.50;99.56;100511.31;4993219;28;20108;-87
2021/05/26 06:08:24;;;;;;;4.45;3.30;;;;;;;10.59;99.40;100504.63;4992611;28;20100;-86
2021/05/26 06:10:49;;;;;;;7.10;3.50;;;;;;;11.20;98.69;100494.38;5009697;28;20387;-86
2021/05/26 06:13:15;;;;;;;4.25;3.33;;;;;;;11.87;95.64;100497.50;5012076;28;20052;-86
2021/05/26 06:15:41;;;;;;;8.07;3.38;;;;;;;12.01;94.04;100498.34;5012170;28;20026;-86
2021/05/26 06:18:06;;;;;;;7.45;3.13;;;;;;;12.29;94.52;100497.16;5012126;28;20606;-87
2021/05/26 06:20:31;;;;;;;4.72;2.60;;;;;;;12.68;91.29;100495.16;5012053;28;20119;-86
2021/05/26 06:22:57;;;;;;;8.13;2.60;;;;;;;13.66;88.06;100498.13;5012057;28;20382;-87
2021/05/26 06:25:22;;;;;;;6.75;2.67;;;;;;;14.71;85.71;100499.34;5014394;28;20055;-86
2021/05/26 06:27:48;;;;;;;8.32;3.28;;;;;;;15.54;87.67;100493.13;5007594;28;20034;-87
2021/05/26 06:30:13;;;;;;;3.38;1.77;;;;;;;16.07;74.70;100499.94;5010010;28;20022;-88
2021/05/26 06:32:39;;;;;;;6.85;2.33;;;;;;;16.83;78.00;100507.22;4994429;28;20091;-87
2021/05/26 06:35:05;;;;;;;5.45;1.90;;;;;;;17.09;69.93;100501.28;4992437;28;20033;-87
2021/05/26 06:37:30;;;;;;;7.43;1.83;;;;;;;17.56;68.73;100494.13;5003714;28;20041;-87
2021/05/26 06:39:56;;;;;;;5.70;1.92;;;;;;;16.76;69.63;100506.06;5007910;28;20026;-87
2021/05/26 06:42:21;;;;;;;7.88;2.35;;;;;;;17.37;68.04;100504.81;5027372;28;20064;-87
2021/05/26 06:44:48;;;;;;;8.32;1.90;;;;;;;18.26;64.69;100500.69;5012816;28;20022;-87
2021/05/26 06:47:13;;;;;;;3.97;1.70;;;;;;;18.47;62.29;100503.88;5011613;28;20120;-87
2021/05/26 06:49:38;;;;;;;4.63;1.50;;;;;;;17.78;63.61;100508.81;5021082;28;20177;-87
2021/05/26 06:52:04;;;;;;;2.50;1.27;;;;;;;18.86;62.74;100508.88;5035194;28;20033;-87
2021/05/26 06:54:29;;;;;;;6.15;1.50;;;;;;;19.71;60.26;100513.50;5025982;28;20037;-88
2021/05/26 06:56:55;;;;;;;8.32;2.30;;;;;;;20.08;58.68;100507.75;5015102;28;20037;-88
2021/05/26 06:59:21;;;;;;;6.05;1.80;;;;;;;20.83;56.85;100512.16;5015591;28;20033;-88
2021/05/26 07:01:47;;;;;;;3.88;1.20;;;;;;;21.52;52.10;100501.00;5008240;28;20027;-88
2021/05/26 07:04:12;;;;;;;3.45;1.20;;;;;;;21.69;51.10;100505.28;5015208;28;20036;-88
2021/05/26 07:06:37;;;;;;;3.70;1.30;;;;;;;22.23;48.37;100503.63;5007843;28;20177;-88
2021/05/26 07:09:03;;;;;;;4.13;1.25;;;;;;;22.53;46.34;100499.22;5017483;28;20026;-88
2021/05/26 07:11:29;;;;;;;4.10;1.00;;;;;;;22.92;45.93;100499.03;5015246;28;20041;-89
2021/05/26 07:13:54;;;;;;;5.65;1.20;;;;;;;22.96;44.40;100497.66;5014823;28;20498;-89
2021/05/26 07:16:19;;;;;;;2.63;1.10;;;;;;;23.70;43.90;100496.00;5014720;28;20109;-89
2021/05/26 07:18:48;;;;;;;2.33;0.82;;;;;;;24.09;44.08;100492.13;5007678;28;20034;-89
2021/05/26 07:21:15;;;;;;;3.47;1.00;;;;;;;23.96;41.53;100492.81;4995510;28;20026;-89
2021/05/26 07:23:41;;;;;;;4.28;1.52;;;;;;;24.29;42.29;100500.34;5000620;28;20118;-87
2021/05/26 07:26:07;;;;;;;4.05;1.48;;;;;;;24.39;40.09;100500.88;5015073;28;20122;-88
2021/05/26 07:28:32;;;;;;;2.40;1.10;;;;;;;24.88;41.43;100489.34;5011994;28;20053;-89
2021/05/26 07:30:58;;;;;;;4.78;1.27;;;;;;;24.97;39.75;100491.88;4995206;28;20029;-88
2021/05/26 07:33:24;;;;;;;4.10;0.93;;;;;;;23.74;40.17;100495.44;5024886;28;20108;-89
2021/05/26 07:35:49;;;;;;;8.38;0.75;;;;;;;23.62;41.52;100496.94;5024756;28;20041;-88
2021/05/26 07:38:15;;;;;;;1.83;0.60;;;;;;;24.63;41.09;100493.50;5034668;28;20036;-88
2021/05/26 07:40:40;;;;;;;2.08;0.70;;;;;;;24.89;39.74;100496.34;5004415;28;20163;-89
2021/05/26 07:43:05;;;;;;;3.60;1.10;;;;;;;25.23;39.30;100492.03;4994144;28;20018;-89
2021/05/26 07:45:31;;;;;;;3.10;0.90;;;;;;;25.62;38.40;100493.25;5010312;28;20045;-86
2021/05/26 07:47:56;;;;;;;2.55;0.70;;;;;;;26.21;38.73;100496.34;5014775;28;20065;-86
2021/05/26 07:50:22;;;;;;;3.33;0.70;;;;;;;25.91;36.60;100494.84;5002708;28;20026;-87
2021/05/26 07:52:47;;;;;;;2.65;0.80;;;;;;;26.05;35.76;100495.69;5002777;28;20057;-87
2021/05/26 07:55:13;;;;;;;2.97;0.77;;;;;;;26.36;35.52;100496.97;5014573;28;20443;-87
2021/05/26 07:57:39;;;;;;;3.85;0.45;;;;;;;26.25;36.10;100503.00;5013451;28;20399;-87
2021/05/26 08:00:06;;;;;;;3.40;0.85;;;;;;;26.06;36.22;100499.22;5014386;28;20049;-87
2021/05/26 08:02:31;;;;;;;4.32;0.77;;;;;;;26.50;35.91;100495.97;5014541;28;20037;-87
2021/05/26 08:04:57;;;;;;;1.60;0.47;;;;;;;26.93;35.61;100493.88;5021327;28;20025;-87
2021/05/26 08:07:22;;;;;;;3.75;0.77;;;;;;;26.07;34.49;100493.63;5022489;28;20026;-87
2021/05/26 08:09:48;;;;;;;2.58;1.10;;;;;;;26.61;35.14;100501.78;5014197;28;20079;-87
2021/05/26 08:12:13;;;;;;;2.92;0.98;;;;;;;26.47;33.79;100507.13;5009517;28;20053;-88
2021/05/26 08:14:39;;;;;;;3.10;0.85;;;;;;;25.83;34.20;100497.69;4994155;28;20035;-87
2021/05/26 08:17:05;;;;;;;4.03;0.98;;;;;;;25.58;34.88;100510.81;5000876;28;20033;-88
2021/05/26 08:19:31;;;;;;;4.18;0.90;;;;;;;27.00;35.34;100497.41;5014993;28;20022;-87
2021/05/26 08:21:57;;;;;;;2.42;0.70;;;;;;;27.13;33.63;100505.44;4995599;28;20073;-87
2021/05/26 08:24:22;;;;;;;3.80;1.10;;;;;;;26.51;36.03;100505.69;4994549;28;20396;-87
2021/05/26 08:26:49;;;;;;;3.53;1.00;;;;;;;26.16;35.12;100504.19;4998781;28;20076;-87
2021/05/26 08:29:15;;;;;;;2.45;0.57;;;;;;;26.79;34.00;100504.66;5003618;28;20034;-86
2021/05/26 08:31:41;;;;;;;4.10;1.30;;;;;;;27.62;34.86;100498.66;5013414;28;20606;-87
2021/05/26 08:34:06;;;;;;;2.35;0.77;;;;;;;27.36;33.86;100498.78;5013847;28;20032;-88
2021/05/26 08:36:31;;;;;;;7.45;1.25;;;;;;;27.32;33.38;100497.56;5013608;28;20030;-88
2021/05/26 08:38:57;;;;;;;37.90;5.72;;;;;;;27.67;33.90;100506.13;5013744;28;20415;-88
2021/05/26 08:41:23;;;;;;;55.10;6.43;;;;;;;28.68;33.32;100497.19;5013565;28;20029;-86
2021/05/26 08:43:49;;;;;;;9.73;1.58;;;;;;;28.75;32.34;100501.72;5009759;28;20027;-87
2021/05/26 08:46:15;;;;;;;3.90;1.52;;;;;;;28.87;33.87;100502.63;5031169;28;20103;-85
2021/05/26 08:48:42;;;;;;;4.47;0.73;;;;;;;28.98;32.52;100495.69;5015629;28;20037;-88
2021/05/26 08:51:10;;;;;;;3.75;1.17;;;;;;;28.43;31.29;100496.34;5013783;28;20033;-88
2021/05/26 08:53:36;;;;;;;2.58;0.80;;;;;;;28.30;33.04;100489.19;5013462;28;20049;-88
2021/05/26 08:56:03;;;;;;;3.55;0.90;;;;;;;28.85;32.05;100486.66;5013321;28;20064;-87
2021/05/26 08:58:28;;;;;;;1.83;0.63;;;;;;;29.19;31.36;100492.56;5013616;28;20040;-87
2021/05/26 09:00:53;;;;;;;4.25;1.13;;;;;;;28.79;31.69;100481.31;5012946;28;20026;-88
2021/05/26 09:03:19;;;;;;;3.03;0.60;;;;;;;28.40;31.17;100478.72;5021932;28;20460;-87
2021/05/26 09:05:52;;;;;;;2.08;0.60;;;;;;;27.05;33.66;100487.66;5022245;28;20057;-86
2021/05/26 09:08:20;;;;;;;2.03;0.60;;;;;;;26.00;33.87;100481.19;5013168;28;20081;-86
2021/05/26 09:11:04;;;;;;;5.30;0.52;;;;;;;26.82;31.95;100485.41;5012174;28;20053;-86
2021/05/26 09:13:38;;;;;;;1.27;0.50;;;;;;;25.75;35.34;100491.66;5012956;28;20034;-86
2021/05/26 09:16:08;;;;;;;2.03;0.57;;;;;;;25.54;35.83;100493.44;5012405;28;20037;-86
2021/05/26 09:19:01;;;;;;;7.65;0.60;;;;;;;26.91;34.05;100497.59;5013111;28;20030;-86
2021/05/26 09:21:43;;;;;;;2.15;0.65;;;;;;;27.35;33.79;100503.38;5012067;28;20030;-86
2021/05/26 09:24:22;;;;;;;3.78;0.77;;;;;;;27.13;32.87;100493.84;5013212;28;20034;-86
2021/05/26 09:26:59;;;;;;;1.15;0.40;;;;;;;28.03;33.30;100494.75;5008893;28;20044;-86
2021/05/26 09:29:30;;;;;;;2.65;0.60;;;;;;;27.40;32.71;100489.22;4994119;28;20034;-86
2021/05/26 09:32:20;;;;;;;1.63;0.60;;;;;;;27.55;32.00;100484.41;5009561;28;20505;-86
2021/05/26 09:34:50;;;;;;;3.65;0.75;;;;;;;28.04;32.26;100482.06;4994385;28;20042;-86
2021/05/26 09:37:20;;;;;;;2.70;0.88;;;;;;;28.51;30.46;100488.00;5010854;28;20029;-87
2021/05/26 09:40:03;;;;;;;3.97;0.70;;;;;;;29.03;30.24;100493.16;5014411;28;20032;-86
2021/05/26 09:42:49;;;;;;;2.33;0.68;;;;;;;27.97;31.70;100489.41;5004578;28;20045;-86
2021/05/26 09:45:25;;;;;;;3.35;1.33;;;;;;;27.54;32.87;100485.44;5011610;28;20049;-86
2021/05/26 09:47:55;;;;;;;1.88;0.70;;;;;;;26.82;32.13;100482.72;5011912;28;20057;-85
2021/05/26 09:50:23;;;;;;;1.60;0.40;;;;;;;26.67;33.28;100487.50;5011574;28;20033;-86
2021/05/26 09:53:22;;;;;;;3.05;0.30;;;;;;;26.10;34.32;100492.38;5010572;28;20026;-86
2021/05/26 09:55:48;;;;;;;1.67;0.60;;;;;;;25.91;34.98;100491.34;4985435;28;20061;-85
2021/05/26 09:58:17;;;;;;;3.38;0.77;;;;;;;25.61;36.29;100496.16;5010855;28;20026;-86
2021/05/26 10:00:45;;;;;;;2.05;0.45;;;;;;;25.39;36.39;100498.13;4997043;28;20033;-86
2021/05/26 10:03:11;;;;;;;7.30;0.80;;;;;;;24.82;37.01;100495.50;5012414;28;20021;-85
2021/05/26 10:05:37;;;;;;;2.75;0.60;;;;;;;23.59;37.97;100494.63;5009656;28;20037;-85
2021/05/26 10:08:06;;;;;;;2.42;0.75;;;;;;;23.26;39.10;100507.59;5007354;28;20036;-87
2021/05/26 10:10:32;;;;;;;2.45;0.80;;;;;;;23.18;40.65;100503.16;5004427;28;20021;-85
2021/05/26 10:13:05;;;;;;;5.10;0.50;;;;;;;22.92;41.59;100501.72;5013075;28;20026;-85
2021/05/26 10:15:33;;;;;;;4.05;0.90;;;;;;;22.04;41.84;100508.44;5010267;28;20056;-85
2021/05/26 10:18:00;;;;;;;3.97;0.80;;;;;;;21.66;44.35;100505.63;5011244;28;20554;-85
2021/05/26 10:20:37;;;;;;;38.65;4.55;;;;;;;21.05;44.61;100507.97;5011015;28;20040;-85
2021/05/26 10:23:05;;;;;;;89.40;8.40;;;;;;;20.86;45.82;100501.16;5011138;28;20022;-86
2021/05/26 10:25:31;;;;;;;9.80;1.00;;;;;;;20.86;47.34;100509.16;5011790;28;20049;-85
2021/05/26 10:27:58;;;;;;;3.08;0.50;;;;;;;20.97;47.92;100495.47;5011852;28;20070;-84
2021/05/26 10:30:29;;;;;;;207.88;21.73;;;;;;;20.92;47.58;100511.16;5010639;28;20026;-85
2021/05/26 10:33:00;;;;;;;109.03;12.02;;;;;;;21.05;48.15;100512.47;5031530;28;20036;-85
2021/05/26 10:35:30;;;;;;;5.80;1.20;;;;;;;21.13;48.24;100515.13;5021899;28;20048;-85
2021/05/26 10:38:04;;;;;;;4.07;1.00;;;;;;;21.32;46.90;100516.56;5012955;28;20044;-85
2021/05/26 10:40:37;;;;;;;1.83;0.77;;;;;;;21.43;47.71;100520.72;5011179;28;20431;-85
2021/05/26 10:43:12;;;;;;;4.10;0.93;;;;;;;22.44;44.44;100517.22;5011601;28;20026;-85
2021/05/26 10:45:37;;;;;;;3.70;0.68;;;;;;;22.94;41.80;100505.03;5003389;28;20390;-86
2021/05/26 10:48:03;;;;;;;2.70;0.65;;;;;;;23.64;42.36;100504.81;4997557;28;20435;-86
2021/05/26 10:50:43;;;;;;;2.47;0.57;;;;;;;23.92;40.58;100507.63;4992163;28;20053;-86
2021/05/26 10:53:10;;;;;;;5.35;1.13;;;;;;;23.92;40.72;100507.63;5001256;28;20062;-86
2021/05/26 10:55:46;;;;;;;3.45;0.77;;;;;;;24.13;39.79;100504.97;5011250;28;20415;-86
2021/05/26 10:58:17;;;;;;;1.92;0.55;;;;;;;23.94;39.03;100506.41;5012280;28;20037;-86
2021/05/26 11:00:51;;;;;;;2.67;0.60;;;;;;;23.58;40.37;100502.84;5011779;28;20058;-86
2021/05/26 11:03:28;;;;;;;2.92;0.50;;;;;;;23.17;40.56;100506.88;5012259;28;20064;-86
2021/05/26 11:05:56;;;;;;;3.03;1.05;;;;;;;22.94;40.28;100509.56;5011934;28;20503;-86
2021/05/26 11:08:41;;;;;;;34.55;2.60;;;;;;;22.40;42.28;100507.06;5011977;28;20088;-86
2021/05/26 11:14:10;;;;;;;5.90;0.75;;;;;;;21.54;45.21;100504.34;4992312;28;20034;-86
2021/05/26 11:16:41;;;;;;;2.38;0.50;;;;;;;21.54;44.82;100507.88;4992181;28;20026;-86
2021/05/26 11:19:11;;;;;;;1.23;0.50;;;;;;;21.71;45.05;100515.81;4992446;28;20237;-86
2021/05/26 11:21:36;;;;;;;2.38;0.57;;;;;;;22.26;44.81;100512.16;4992194;28;20027;-85
2021/05/26 11:24:02;;;;;;;2.47;0.43;;;;;;;22.96;41.44;100512.91;5005957;28;20029;-86
2021/05/26 11:26:35;;;;;;;2.20;0.60;;;;;;;23.05;41.45;100505.66;5031449;28;20041;-86
2021/05/26 11:29:04;;;;;;;1.70;0.77;;;;;;;23.59;40.12;100504.53;5031258;28;20025;-86